sensor_id;sensor_type;location;lat;lon;timestamp;P1;durP1;ratioP1;P2;durP2;ratioP2
3068;SDS011;1545;51.728;8.796;2023-03-12T00:01:10;21.10;;;8.67;;
3068;SDS011;1545;51.728;8.796;2023-03-12T00:03:40;15.13;;;8.73;;
3068;SDS011;1545;51.728;8.796;2023-03-12T00:06:06;18.13;;;8.50;;
3068;SDS011;1545;51.728;8.796;2023-03-12T00:08:32;13.70;;;8.70;;
3068;SDS011;1545;51.728;8.796;2023-03-12T00:10:58;15.30;;;9.13;;
3068;SDS011;1545;51.728;8.796;2023-03-12T00:13:23;16.97;;;8.97;;
3068;SDS011;1545;51.728;8.796;2023-03-12T00:15:49;15.63;;;8.07;;
3068;SDS011;1545;51.728;8.796;2023-03-12T00:18:14;16.07;;;8.57;;
3068;SDS011;1545;51.728;8.796;2023-03-12T00:20:39;19.07;;;9.00;;
3068;SDS011;1545;51.728;8.796;2023-03-12T00:23:05;18.93;;;8.70;;
3068;SDS011;1545;51.728;8.796;2023-03-12T00:25:31;16.57;;;8.67;;
3068;SDS011;1545;51.728;8.796;2023-03-12T00:27:57;18.63;;;8.63;;
3068;SDS011;1545;51.728;8.796;2023-03-12T00:30:22;17.63;;;9.07;;
3068;SDS011;1545;51.728;8.796;2023-03-12T00:32:48;18.67;;;8.73;;
3068;SDS011;1545;51.728;8.796;2023-03-12T00:35:13;21.30;;;9.10;;
3068;SDS011;1545;51.728;8.796;2023-03-12T00:37:39;19.23;;;8.83;;
3068;SDS011;1545;51.728;8.796;2023-03-12T00:40:05;17.00;;;8.73;;
3068;SDS011;1545;51.728;8.796;2023-03-12T00:42:33;14.87;;;8.90;;
3068;SDS011;1545;51.728;8.796;2023-03-12T00:44:59;18.03;;;8.80;;
3068;SDS011;1545;51.728;8.796;2023-03-12T00:47:24;18.20;;;8.57;;
3068;SDS011;1545;51.728;8.796;2023-03-12T00:49:50;13.57;;;8.30;;
3068;SDS011;1545;51.728;8.796;2023-03-12T00:52:15;16.87;;;8.53;;
3068;SDS011;1545;51.728;8.796;2023-03-12T00:54:41;16.87;;;7.90;;
3068;SDS011;1545;51.728;8.796;2023-03-12T00:57:06;13.43;;;8.10;;
3068;SDS011;1545;51.728;8.796;2023-03-12T00:59:32;19.13;;;8.33;;
3068;SDS011;1545;51.728;8.796;2023-03-12T01:01:57;38.17;;;8.50;;
3068;SDS011;1545;51.728;8.796;2023-03-12T01:04:23;14.93;;;8.47;;
3068;SDS011;1545;51.728;8.796;2023-03-12T01:06:49;14.27;;;8.20;;
3068;SDS011;1545;51.728;8.796;2023-03-12T01:09:14;14.13;;;8.37;;
3068;SDS011;1545;51.728;8.796;2023-03-12T01:11:40;11.23;;;6.23;;
3068;SDS011;1545;51.728;8.796;2023-03-12T01:14:06;17.17;;;8.80;;
3068;SDS011;1545;51.728;8.796;2023-03-12T01:16:32;18.27;;;9.07;;
3068;SDS011;1545;51.728;8.796;2023-03-12T01:18:58;18.13;;;8.67;;
3068;SDS011;1545;51.728;8.796;2023-03-12T01:21:26;15.63;;;8.07;;
3068;SDS011;1545;51.728;8.796;2023-03-12T01:23:52;20.43;;;8.83;;
3068;SDS011;1545;51.728;8.796;2023-03-12T01:26:18;14.97;;;8.47;;
3068;SDS011;1545;51.728;8.796;2023-03-12T01:28:44;21.00;;;8.27;;
3068;SDS011;1545;51.728;8.796;2023-03-12T01:31:11;16.97;;;9.23;;
3068;SDS011;1545;51.728;8.796;2023-03-12T01:33:38;18.23;;;8.47;;
3068;SDS011;1545;51.728;8.796;2023-03-12T01:36:04;14.37;;;8.03;;
3068;SDS011;1545;51.728;8.796;2023-03-12T01:38:38;16.43;;;8.10;;
3068;SDS011;1545;51.728;8.796;2023-03-12T01:41:04;16.27;;;8.43;;
3068;SDS011;1545;51.728;8.796;2023-03-12T01:43:31;20.33;;;9.63;;
3068;SDS011;1545;51.728;8.796;2023-03-12T01:46:00;17.17;;;8.90;;
3068;SDS011;1545;51.728;8.796;2023-03-12T01:48:35;18.70;;;8.77;;
3068;SDS011;1545;51.728;8.796;2023-03-12T01:51:04;14.43;;;8.80;;
3068;SDS011;1545;51.728;8.796;2023-03-12T01:53:31;28.37;;;9.30;;
3068;SDS011;1545;51.728;8.796;2023-03-12T01:55:58;14.40;;;8.70;;
3068;SDS011;1545;51.728;8.796;2023-03-12T01:58:25;19.97;;;8.87;;
3068;SDS011;1545;51.728;8.796;2023-03-12T02:00:52;19.97;;;9.30;;
3068;SDS011;1545;51.728;8.796;2023-03-12T02:03:18;16.10;;;8.97;;
3068;SDS011;1545;51.728;8.796;2023-03-12T02:08:12;15.97;;;9.27;;
3068;SDS011;1545;51.728;8.796;2023-03-12T02:10:41;16.73;;;8.93;;
3068;SDS011;1545;51.728;8.796;2023-03-12T02:13:06;17.00;;;8.67;;
3068;SDS011;1545;51.728;8.796;2023-03-12T02:15:33;15.93;;;9.83;;
3068;SDS011;1545;51.728;8.796;2023-03-12T02:18:03;16.87;;;9.83;;
3068;SDS011;1545;51.728;8.796;2023-03-12T02:20:35;13.30;;;8.57;;
3068;SDS011;1545;51.728;8.796;2023-03-12T02:23:14;15.90;;;9.07;;
3068;SDS011;1545;51.728;8.796;2023-03-12T02:25:50;14.37;;;8.33;;
3068;SDS011;1545;51.728;8.796;2023-03-12T02:28:18;18.53;;;8.90;;
3068;SDS011;1545;51.728;8.796;2023-03-12T02:30:48;19.83;;;9.60;;
3068;SDS011;1545;51.728;8.796;2023-03-12T02:33:15;16.47;;;9.07;;
3068;SDS011;1545;51.728;8.796;2023-03-12T02:35:41;16.57;;;8.63;;
3068;SDS011;1545;51.728;8.796;2023-03-12T02:40:53;15.13;;;8.43;;
3068;SDS011;1545;51.728;8.796;2023-03-12T02:43:21;16.70;;;8.53;;
3068;SDS011;1545;51.728;8.796;2023-03-12T02:45:47;15.23;;;8.20;;
3068;SDS011;1545;51.728;8.796;2023-03-12T02:48:13;14.37;;;8.20;;
3068;SDS011;1545;51.728;8.796;2023-03-12T02:50:38;14.60;;;7.73;;
3068;SDS011;1545;51.728;8.796;2023-03-12T02:53:04;13.93;;;7.33;;
3068;SDS011;1545;51.728;8.796;2023-03-12T02:55:29;14.07;;;7.20;;
3068;SDS011;1545;51.728;8.796;2023-03-12T02:57:55;15.40;;;7.23;;
3068;SDS011;1545;51.728;8.796;2023-03-12T03:00:20;14.27;;;7.83;;
3068;SDS011;1545;51.728;8.796;2023-03-12T03:02:46;17.03;;;7.60;;
3068;SDS011;1545;51.728;8.796;2023-03-12T03:05:11;15.83;;;7.10;;
3068;SDS011;1545;51.728;8.796;2023-03-12T03:07:37;13.50;;;7.53;;
3068;SDS011;1545;51.728;8.796;2023-03-12T03:10:03;12.57;;;7.40;;
3068;SDS011;1545;51.728;8.796;2023-03-12T03:12:30;11.93;;;7.07;;
3068;SDS011;1545;51.728;8.796;2023-03-12T03:14:56;15.80;;;7.53;;
3068;SDS011;1545;51.728;8.796;2023-03-12T03:17:22;16.27;;;8.07;;
3068;SDS011;1545;51.728;8.796;2023-03-12T03:19:48;21.50;;;9.03;;
3068;SDS011;1545;51.728;8.796;2023-03-12T03:22:14;16.53;;;8.53;;
3068;SDS011;1545;51.728;8.796;2023-03-12T03:24:40;13.80;;;8.90;;
3068;SDS011;1545;51.728;8.796;2023-03-12T03:27:06;21.77;;;9.30;;
3068;SDS011;1545;51.728;8.796;2023-03-12T03:29:31;19.90;;;9.07;;
3068;SDS011;1545;51.728;8.796;2023-03-12T03:31:57;16.27;;;8.70;;
3068;SDS011;1545;51.728;8.796;2023-03-12T03:34:22;17.00;;;8.70;;
3068;SDS011;1545;51.728;8.796;2023-03-12T03:36:48;21.63;;;8.63;;
3068;SDS011;1545;51.728;8.796;2023-03-12T03:39:13;14.90;;;8.30;;
3068;SDS011;1545;51.728;8.796;2023-03-12T03:41:39;14.97;;;7.97;;
3068;SDS011;1545;51.728;8.796;2023-03-12T03:44:04;17.80;;;8.30;;
3068;SDS011;1545;51.728;8.796;2023-03-12T03:46:31;17.90;;;7.83;;
3068;SDS011;1545;51.728;8.796;2023-03-12T03:48:59;14.27;;;7.30;;
3068;SDS011;1545;51.728;8.796;2023-03-12T03:51:25;14.20;;;6.93;;
3068;SDS011;1545;51.728;8.796;2023-03-12T03:53:51;12.47;;;7.30;;
3068;SDS011;1545;51.728;8.796;2023-03-12T03:56:16;14.20;;;7.63;;
3068;SDS011;1545;51.728;8.796;2023-03-12T03:58:42;12.47;;;7.70;;
3068;SDS011;1545;51.728;8.796;2023-03-12T04:01:08;16.30;;;7.73;;
3068;SDS011;1545;51.728;8.796;2023-03-12T04:03:33;14.60;;;7.20;;
3068;SDS011;1545;51.728;8.796;2023-03-12T04:06:00;13.50;;;7.10;;
3068;SDS011;1545;51.728;8.796;2023-03-12T04:08:27;19.07;;;6.93;;
3068;SDS011;1545;51.728;8.796;2023-03-12T04:10:53;13.80;;;6.77;;
3068;SDS011;1545;51.728;8.796;2023-03-12T04:13:19;9.27;;;6.20;;
3068;SDS011;1545;51.728;8.796;2023-03-12T04:15:48;10.87;;;6.40;;
3068;SDS011;1545;51.728;8.796;2023-03-12T04:18:15;13.53;;;6.33;;
3068;SDS011;1545;51.728;8.796;2023-03-12T04:20:41;11.77;;;6.47;;
3068;SDS011;1545;51.728;8.796;2023-03-12T04:23:07;13.80;;;6.13;;
3068;SDS011;1545;51.728;8.796;2023-03-12T04:25:33;14.63;;;6.33;;
3068;SDS011;1545;51.728;8.796;2023-03-12T04:27:58;15.10;;;6.17;;
3068;SDS011;1545;51.728;8.796;2023-03-12T04:30:25;13.30;;;6.63;;
3068;SDS011;1545;51.728;8.796;2023-03-12T04:32:50;11.10;;;6.23;;
3068;SDS011;1545;51.728;8.796;2023-03-12T04:35:16;9.17;;;6.00;;
3068;SDS011;1545;51.728;8.796;2023-03-12T04:37:42;17.83;;;6.50;;
3068;SDS011;1545;51.728;8.796;2023-03-12T04:40:08;11.90;;;6.20;;
3068;SDS011;1545;51.728;8.796;2023-03-12T04:42:35;13.23;;;5.80;;
3068;SDS011;1545;51.728;8.796;2023-03-12T04:45:01;11.77;;;6.07;;
3068;SDS011;1545;51.728;8.796;2023-03-12T04:47:29;12.77;;;5.60;;
3068;SDS011;1545;51.728;8.796;2023-03-12T04:49:55;13.70;;;5.50;;
3068;SDS011;1545;51.728;8.796;2023-03-12T04:52:21;13.47;;;5.87;;
3068;SDS011;1545;51.728;8.796;2023-03-12T04:54:46;13.07;;;5.97;;
3068;SDS011;1545;51.728;8.796;2023-03-12T04:57:12;11.90;;;6.13;;
3068;SDS011;1545;51.728;8.796;2023-03-12T04:59:37;13.10;;;5.83;;
3068;SDS011;1545;51.728;8.796;2023-03-12T05:02:03;12.40;;;6.10;;
3068;SDS011;1545;51.728;8.796;2023-03-12T05:04:28;15.67;;;5.70;;
3068;SDS011;1545;51.728;8.796;2023-03-12T05:06:54;9.97;;;5.10;;
3068;SDS011;1545;51.728;8.796;2023-03-12T05:09:19;10.60;;;5.13;;
3068;SDS011;1545;51.728;8.796;2023-03-12T05:11:45;11.07;;;5.27;;
3068;SDS011;1545;51.728;8.796;2023-03-12T05:14:11;10.60;;;5.67;;
3068;SDS011;1545;51.728;8.796;2023-03-12T05:16:36;12.20;;;5.50;;
3068;SDS011;1545;51.728;8.796;2023-03-12T05:19:02;16.57;;;5.43;;
3068;SDS011;1545;51.728;8.796;2023-03-12T05:21:28;8.07;;;4.80;;
3068;SDS011;1545;51.728;8.796;2023-03-12T05:23:54;9.13;;;5.23;;
3068;SDS011;1545;51.728;8.796;2023-03-12T05:28:46;10.07;;;4.87;;
3068;SDS011;1545;51.728;8.796;2023-03-12T05:31:13;9.50;;;4.67;;
3068;SDS011;1545;51.728;8.796;2023-03-12T05:33:39;10.57;;;5.37;;
3068;SDS011;1545;51.728;8.796;2023-03-12T05:36:05;7.17;;;4.60;;
3068;SDS011;1545;51.728;8.796;2023-03-12T05:38:32;9.90;;;4.90;;
3068;SDS011;1545;51.728;8.796;2023-03-12T05:40:57;14.73;;;5.60;;
3068;SDS011;1545;51.728;8.796;2023-03-12T05:43:23;8.83;;;5.17;;
3068;SDS011;1545;51.728;8.796;2023-03-12T05:45:49;15.37;;;4.93;;
3068;SDS011;1545;51.728;8.796;2023-03-12T05:48:15;10.93;;;5.17;;
3068;SDS011;1545;51.728;8.796;2023-03-12T05:50:41;14.90;;;5.27;;
3068;SDS011;1545;51.728;8.796;2023-03-12T05:53:07;12.73;;;4.70;;
3068;SDS011;1545;51.728;8.796;2023-03-12T05:55:33;11.80;;;5.20;;
3068;SDS011;1545;51.728;8.796;2023-03-12T05:58:00;13.97;;;4.50;;
3068;SDS011;1545;51.728;8.796;2023-03-12T06:00:26;11.53;;;4.90;;
3068;SDS011;1545;51.728;8.796;2023-03-12T06:02:52;10.63;;;4.73;;
3068;SDS011;1545;51.728;8.796;2023-03-12T06:05:17;15.20;;;5.30;;
3068;SDS011;1545;51.728;8.796;2023-03-12T06:07:42;12.23;;;5.10;;
3068;SDS011;1545;51.728;8.796;2023-03-12T06:10:08;12.40;;;4.83;;
3068;SDS011;1545;51.728;8.796;2023-03-12T06:12:34;11.57;;;5.43;;
3068;SDS011;1545;51.728;8.796;2023-03-12T06:15:00;11.90;;;5.00;;
3068;SDS011;1545;51.728;8.796;2023-03-12T06:17:25;13.77;;;5.20;;
3068;SDS011;1545;51.728;8.796;2023-03-12T06:19:53;8.67;;;4.80;;
3068;SDS011;1545;51.728;8.796;2023-03-12T06:22:19;18.73;;;4.80;;
3068;SDS011;1545;51.728;8.796;2023-03-12T06:24:44;10.03;;;5.00;;
3068;SDS011;1545;51.728;8.796;2023-03-12T06:27:11;12.27;;;4.63;;
3068;SDS011;1545;51.728;8.796;2023-03-12T06:29:37;14.60;;;5.27;;
3068;SDS011;1545;51.728;8.796;2023-03-12T06:32:03;13.93;;;5.30;;
3068;SDS011;1545;51.728;8.796;2023-03-12T06:34:28;9.83;;;4.43;;
3068;SDS011;1545;51.728;8.796;2023-03-12T06:36:54;15.27;;;5.47;;
3068;SDS011;1545;51.728;8.796;2023-03-12T06:39:19;15.33;;;4.87;;
3068;SDS011;1545;51.728;8.796;2023-03-12T06:41:45;11.90;;;5.37;;
3068;SDS011;1545;51.728;8.796;2023-03-12T06:44:10;12.03;;;4.80;;
3068;SDS011;1545;51.728;8.796;2023-03-12T06:46:36;16.33;;;5.27;;
3068;SDS011;1545;51.728;8.796;2023-03-12T06:49:02;8.43;;;4.87;;
3068;SDS011;1545;51.728;8.796;2023-03-12T06:51:27;13.73;;;5.00;;
3068;SDS011;1545;51.728;8.796;2023-03-12T06:53:53;14.77;;;5.03;;
3068;SDS011;1545;51.728;8.796;2023-03-12T06:56:18;9.50;;;4.77;;
3068;SDS011;1545;51.728;8.796;2023-03-12T06:58:44;8.67;;;4.67;;
3068;SDS011;1545;51.728;8.796;2023-03-12T07:01:09;9.20;;;4.90;;
3068;SDS011;1545;51.728;8.796;2023-03-12T07:03:35;7.33;;;4.60;;
3068;SDS011;1545;51.728;8.796;2023-03-12T07:06:00;10.27;;;4.57;;
3068;SDS011;1545;51.728;8.796;2023-03-12T07:08:26;9.77;;;4.80;;
3068;SDS011;1545;51.728;8.796;2023-03-12T07:10:56;10.87;;;5.07;;
3068;SDS011;1545;51.728;8.796;2023-03-12T07:13:22;9.47;;;4.80;;
3068;SDS011;1545;51.728;8.796;2023-03-12T07:15:48;12.70;;;4.63;;
3068;SDS011;1545;51.728;8.796;2023-03-12T07:18:13;7.53;;;4.50;;
3068;SDS011;1545;51.728;8.796;2023-03-12T07:20:40;13.60;;;4.83;;
3068;SDS011;1545;51.728;8.796;2023-03-12T07:23:07;13.27;;;4.17;;
3068;SDS011;1545;51.728;8.796;2023-03-12T07:25:34;11.80;;;4.80;;
3068;SDS011;1545;51.728;8.796;2023-03-12T07:28:04;10.90;;;4.50;;
3068;SDS011;1545;51.728;8.796;2023-03-12T07:30:30;9.07;;;4.50;;
3068;SDS011;1545;51.728;8.796;2023-03-12T07:32:58;14.67;;;4.67;;
3068;SDS011;1545;51.728;8.796;2023-03-12T07:35:25;14.47;;;4.93;;
3068;SDS011;1545;51.728;8.796;2023-03-12T07:37:50;12.67;;;5.00;;
3068;SDS011;1545;51.728;8.796;2023-03-12T07:40:16;10.47;;;4.77;;
3068;SDS011;1545;51.728;8.796;2023-03-12T07:42:41;8.77;;;4.57;;
3068;SDS011;1545;51.728;8.796;2023-03-12T07:45:07;13.57;;;5.23;;
3068;SDS011;1545;51.728;8.796;2023-03-12T07:47:33;18.40;;;5.00;;
3068;SDS011;1545;51.728;8.796;2023-03-12T07:49:58;15.27;;;5.07;;
3068;SDS011;1545;51.728;8.796;2023-03-12T07:52:25;15.03;;;4.97;;
3068;SDS011;1545;51.728;8.796;2023-03-12T07:54:51;11.20;;;4.83;;
3068;SDS011;1545;51.728;8.796;2023-03-12T07:57:18;12.17;;;4.87;;
3068;SDS011;1545;51.728;8.796;2023-03-12T07:59:43;13.50;;;4.83;;
3068;SDS011;1545;51.728;8.796;2023-03-12T08:02:10;9.53;;;4.73;;
3068;SDS011;1545;51.728;8.796;2023-03-12T08:04:35;12.87;;;4.60;;
3068;SDS011;1545;51.728;8.796;2023-03-12T08:07:01;9.90;;;4.30;;
3068;SDS011;1545;51.728;8.796;2023-03-12T08:09:27;8.57;;;4.60;;
3068;SDS011;1545;51.728;8.796;2023-03-12T08:11:53;10.20;;;4.30;;
3068;SDS011;1545;51.728;8.796;2023-03-12T08:14:19;7.97;;;4.70;;
3068;SDS011;1545;51.728;8.796;2023-03-12T08:16:44;12.63;;;4.73;;
3068;SDS011;1545;51.728;8.796;2023-03-12T08:19:09;12.27;;;4.57;;
3068;SDS011;1545;51.728;8.796;2023-03-12T08:21:35;11.13;;;4.30;;
3068;SDS011;1545;51.728;8.796;2023-03-12T08:24:01;12.27;;;4.50;;
3068;SDS011;1545;51.728;8.796;2023-03-12T08:26:26;10.70;;;4.50;;
3068;SDS011;1545;51.728;8.796;2023-03-12T08:28:52;11.53;;;4.60;;
3068;SDS011;1545;51.728;8.796;2023-03-12T08:31:17;9.03;;;4.20;;
3068;SDS011;1545;51.728;8.796;2023-03-12T08:33:43;15.63;;;4.70;;
3068;SDS011;1545;51.728;8.796;2023-03-12T08:36:10;12.87;;;4.93;;
3068;SDS011;1545;51.728;8.796;2023-03-12T08:38:36;13.33;;;4.60;;
3068;SDS011;1545;51.728;8.796;2023-03-12T08:41:02;14.70;;;4.67;;
3068;SDS011;1545;51.728;8.796;2023-03-12T08:43:28;11.00;;;4.30;;
3068;SDS011;1545;51.728;8.796;2023-03-12T08:45:58;12.83;;;5.30;;
3068;SDS011;1545;51.728;8.796;2023-03-12T08:48:25;13.33;;;5.23;;
3068;SDS011;1545;51.728;8.796;2023-03-12T08:50:53;14.07;;;5.17;;
3068;SDS011;1545;51.728;8.796;2023-03-12T08:53:20;13.70;;;5.87;;
3068;SDS011;1545;51.728;8.796;2023-03-12T08:55:46;18.47;;;5.80;;
3068;SDS011;1545;51.728;8.796;2023-03-12T08:58:12;13.77;;;5.87;;
3068;SDS011;1545;51.728;8.796;2023-03-12T09:00:37;17.80;;;7.03;;
3068;SDS011;1545;51.728;8.796;2023-03-12T09:03:03;13.97;;;6.30;;
3068;SDS011;1545;51.728;8.796;2023-03-12T09:05:28;12.70;;;6.10;;
3068;SDS011;1545;51.728;8.796;2023-03-12T09:07:54;15.63;;;6.90;;
3068;SDS011;1545;51.728;8.796;2023-03-12T09:10:21;15.90;;;6.60;;
3068;SDS011;1545;51.728;8.796;2023-03-12T09:12:46;12.33;;;6.93;;
3068;SDS011;1545;51.728;8.796;2023-03-12T09:15:12;17.63;;;7.80;;
3068;SDS011;1545;51.728;8.796;2023-03-12T09:17:37;17.10;;;7.30;;
3068;SDS011;1545;51.728;8.796;2023-03-12T09:20:04;19.37;;;7.47;;
3068;SDS011;1545;51.728;8.796;2023-03-12T09:22:34;17.63;;;7.53;;
3068;SDS011;1545;51.728;8.796;2023-03-12T09:25:01;14.80;;;7.60;;
3068;SDS011;1545;51.728;8.796;2023-03-12T09:27:28;17.17;;;7.67;;
3068;SDS011;1545;51.728;8.796;2023-03-12T09:29:53;17.60;;;7.80;;
3068;SDS011;1545;51.728;8.796;2023-03-12T09:32:19;16.93;;;8.27;;
3068;SDS011;1545;51.728;8.796;2023-03-12T09:34:45;20.07;;;9.33;;
3068;SDS011;1545;51.728;8.796;2023-03-12T09:37:10;23.60;;;8.90;;
3068;SDS011;1545;51.728;8.796;2023-03-12T09:39:36;22.60;;;10.03;;
3068;SDS011;1545;51.728;8.796;2023-03-12T09:42:02;18.00;;;9.57;;
3068;SDS011;1545;51.728;8.796;2023-03-12T09:44:32;16.13;;;9.23;;
3068;SDS011;1545;51.728;8.796;2023-03-12T09:47:02;19.03;;;10.23;;
3068;SDS011;1545;51.728;8.796;2023-03-12T09:49:34;16.60;;;9.63;;
3068;SDS011;1545;51.728;8.796;2023-03-12T09:52:24;16.93;;;9.93;;
3068;SDS011;1545;51.728;8.796;2023-03-12T09:55:00;19.43;;;10.43;;
3068;SDS011;1545;51.728;8.796;2023-03-12T09:57:31;22.20;;;11.97;;
3068;SDS011;1545;51.728;8.796;2023-03-12T09:59:57;17.23;;;10.73;;
3068;SDS011;1545;51.728;8.796;2023-03-12T10:08:15;21.63;;;12.00;;
3068;SDS011;1545;51.728;8.796;2023-03-12T10:11:13;22.67;;;12.27;;
3068;SDS011;1545;51.728;8.796;2023-03-12T10:19:20;33.23;;;13.27;;
3068;SDS011;1545;51.728;8.796;2023-03-12T10:22:30;22.53;;;12.30;;
3068;SDS011;1545;51.728;8.796;2023-03-12T10:27:48;27.27;;;13.43;;
3068;SDS011;1545;51.728;8.796;2023-03-12T10:30:16;23.10;;;13.53;;
3068;SDS011;1545;51.728;8.796;2023-03-12T10:32:52;24.37;;;13.10;;
3068;SDS011;1545;51.728;8.796;2023-03-12T10:35:23;28.17;;;13.37;;
3068;SDS011;1545;51.728;8.796;2023-03-12T10:37:52;33.07;;;13.87;;
3068;SDS011;1545;51.728;8.796;2023-03-12T10:40:22;27.07;;;13.90;;
3068;SDS011;1545;51.728;8.796;2023-03-12T10:42:48;25.73;;;14.20;;
3068;SDS011;1545;51.728;8.796;2023-03-12T10:47:48;25.57;;;14.83;;
3068;SDS011;1545;51.728;8.796;2023-03-12T10:50:17;23.90;;;14.00;;
3068;SDS011;1545;51.728;8.796;2023-03-12T10:53:11;24.43;;;14.43;;
3068;SDS011;1545;51.728;8.796;2023-03-12T10:56:01;26.50;;;15.23;;
3068;SDS011;1545;51.728;8.796;2023-03-12T10:58:33;25.27;;;14.93;;
3068;SDS011;1545;51.728;8.796;2023-03-12T11:03:38;24.30;;;14.67;;
3068;SDS011;1545;51.728;8.796;2023-03-12T11:06:04;23.50;;;14.90;;
3068;SDS011;1545;51.728;8.796;2023-03-12T11:08:32;28.43;;;15.43;;
3068;SDS011;1545;51.728;8.796;2023-03-12T11:11:00;27.03;;;14.83;;
3068;SDS011;1545;51.728;8.796;2023-03-12T11:13:36;27.10;;;15.97;;
3068;SDS011;1545;51.728;8.796;2023-03-12T11:21:54;28.07;;;16.03;;
3068;SDS011;1545;51.728;8.796;2023-03-12T11:24:32;24.77;;;15.60;;
3068;SDS011;1545;51.728;8.796;2023-03-12T11:27:15;26.83;;;16.20;;
3068;SDS011;1545;51.728;8.796;2023-03-12T11:29:50;32.43;;;16.73;;
3068;SDS011;1545;51.728;8.796;2023-03-12T11:32:19;23.40;;;14.83;;
3068;SDS011;1545;51.728;8.796;2023-03-12T11:34:53;27.07;;;15.77;;
3068;SDS011;1545;51.728;8.796;2023-03-12T11:43:06;27.23;;;15.90;;
3068;SDS011;1545;51.728;8.796;2023-03-12T11:49:16;25.13;;;14.93;;
3068;SDS011;1545;51.728;8.796;2023-03-12T11:57:42;24.60;;;14.67;;
3068;SDS011;1545;51.728;8.796;2023-03-12T12:05:09;23.77;;;14.53;;
3068;SDS011;1545;51.728;8.796;2023-03-12T12:10:51;24.80;;;14.83;;
3068;SDS011;1545;51.728;8.796;2023-03-12T12:21:55;31.03;;;16.03;;
3068;SDS011;1545;51.728;8.796;2023-03-12T12:24:36;22.63;;;14.60;;
3068;SDS011;1545;51.728;8.796;2023-03-12T12:27:23;25.37;;;15.20;;
3068;SDS011;1545;51.728;8.796;2023-03-12T12:30:03;23.80;;;13.90;;
3068;SDS011;1545;51.728;8.796;2023-03-12T12:32:58;20.60;;;13.43;;
3068;SDS011;1545;51.728;8.796;2023-03-12T12:35:54;22.67;;;13.93;;
3068;SDS011;1545;51.728;8.796;2023-03-12T12:38:40;23.10;;;12.83;;
3068;SDS011;1545;51.728;8.796;2023-03-12T12:41:14;20.37;;;12.40;;
3068;SDS011;1545;51.728;8.796;2023-03-12T12:43:54;19.83;;;12.07;;
3068;SDS011;1545;51.728;8.796;2023-03-12T12:48:56;20.53;;;11.80;;
3068;SDS011;1545;51.728;8.796;2023-03-12T12:51:30;18.47;;;11.70;;
3068;SDS011;1545;51.728;8.796;2023-03-12T12:54:09;18.93;;;11.40;;
3068;SDS011;1545;51.728;8.796;2023-03-12T13:01:56;17.97;;;10.93;;
3068;SDS011;1545;51.728;8.796;2023-03-12T13:04:23;17.37;;;10.83;;
3068;SDS011;1545;51.728;8.796;2023-03-12T13:06:56;19.53;;;10.40;;
3068;SDS011;1545;51.728;8.796;2023-03-12T13:12:29;13.77;;;8.13;;
3068;SDS011;1545;51.728;8.796;2023-03-12T13:15:49;10.93;;;8.17;;
3068;SDS011;1545;51.728;8.796;2023-03-12T13:20:24;11.43;;;7.90;;
3068;SDS011;1545;51.728;8.796;2023-03-12T13:28:32;13.07;;;7.73;;
3068;SDS011;1545;51.728;8.796;2023-03-12T13:33:49;14.53;;;7.77;;
3068;SDS011;1545;51.728;8.796;2023-03-12T13:39:00;13.80;;;7.30;;
3068;SDS011;1545;51.728;8.796;2023-03-12T13:41:57;14.77;;;7.90;;
3068;SDS011;1545;51.728;8.796;2023-03-12T13:44:29;14.17;;;7.67;;
3068;SDS011;1545;51.728;8.796;2023-03-12T13:47:03;11.77;;;7.17;;
3068;SDS011;1545;51.728;8.796;2023-03-12T13:49:42;14.87;;;6.90;;
3068;SDS011;1545;51.728;8.796;2023-03-12T13:52:27;9.70;;;6.17;;
3068;SDS011;1545;51.728;8.796;2023-03-12T13:57:29;17.23;;;6.97;;
3068;SDS011;1545;51.728;8.796;2023-03-12T13:59:59;12.23;;;6.77;;
3068;SDS011;1545;51.728;8.796;2023-03-12T14:02:34;11.57;;;6.73;;
3068;SDS011;1545;51.728;8.796;2023-03-12T14:05:05;13.53;;;6.60;;
3068;SDS011;1545;51.728;8.796;2023-03-12T14:07:39;12.20;;;6.67;;
3068;SDS011;1545;51.728;8.796;2023-03-12T14:10:37;11.90;;;6.30;;
3068;SDS011;1545;51.728;8.796;2023-03-12T14:13:19;10.20;;;6.40;;
3068;SDS011;1545;51.728;8.796;2023-03-12T14:16:17;13.40;;;7.37;;
3068;SDS011;1545;51.728;8.796;2023-03-12T14:18:51;12.50;;;7.07;;
3068;SDS011;1545;51.728;8.796;2023-03-12T14:21:17;13.43;;;7.67;;
3068;SDS011;1545;51.728;8.796;2023-03-12T14:23:51;12.57;;;7.30;;
3068;SDS011;1545;51.728;8.796;2023-03-12T14:26:22;12.20;;;7.30;;
3068;SDS011;1545;51.728;8.796;2023-03-12T14:29:05;15.47;;;7.57;;
3068;SDS011;1545;51.728;8.796;2023-03-12T14:31:35;11.17;;;6.67;;
3068;SDS011;1545;51.728;8.796;2023-03-12T14:36:43;10.27;;;6.67;;
3068;SDS011;1545;51.728;8.796;2023-03-12T14:39:43;10.87;;;6.40;;
3068;SDS011;1545;51.728;8.796;2023-03-12T14:42:22;9.00;;;6.00;;
3068;SDS011;1545;51.728;8.796;2023-03-12T14:44:56;9.83;;;6.03;;
3068;SDS011;1545;51.728;8.796;2023-03-12T14:47:38;12.53;;;6.30;;
3068;SDS011;1545;51.728;8.796;2023-03-12T14:50:28;9.03;;;6.00;;
3068;SDS011;1545;51.728;8.796;2023-03-12T14:58:35;13.40;;;6.40;;
3068;SDS011;1545;51.728;8.796;2023-03-12T15:01:20;10.80;;;6.70;;
3068;SDS011;1545;51.728;8.796;2023-03-12T15:03:51;13.67;;;6.90;;
3068;SDS011;1545;51.728;8.796;2023-03-12T15:06:31;12.27;;;6.70;;
3068;SDS011;1545;51.728;8.796;2023-03-12T15:08:57;11.33;;;7.30;;
3068;SDS011;1545;51.728;8.796;2023-03-12T15:11:26;11.17;;;6.80;;
3068;SDS011;1545;51.728;8.796;2023-03-12T15:13:53;12.47;;;6.27;;
3068;SDS011;1545;51.728;8.796;2023-03-12T15:16:21;12.20;;;6.53;;
3068;SDS011;1545;51.728;8.796;2023-03-12T15:18:47;10.73;;;6.43;;
3068;SDS011;1545;51.728;8.796;2023-03-12T15:21:14;11.47;;;6.57;;
3068;SDS011;1545;51.728;8.796;2023-03-12T15:23:41;10.77;;;6.17;;
3068;SDS011;1545;51.728;8.796;2023-03-12T15:26:31;13.97;;;6.73;;
3068;SDS011;1545;51.728;8.796;2023-03-12T15:28:58;14.03;;;7.30;;
3068;SDS011;1545;51.728;8.796;2023-03-12T15:31:50;15.07;;;7.07;;
3068;SDS011;1545;51.728;8.796;2023-03-12T15:34:33;17.47;;;8.03;;
3068;SDS011;1545;51.728;8.796;2023-03-12T15:37:02;15.70;;;7.47;;
3068;SDS011;1545;51.728;8.796;2023-03-12T15:39:52;16.90;;;7.87;;
3068;SDS011;1545;51.728;8.796;2023-03-12T15:42:19;23.37;;;8.93;;
3068;SDS011;1545;51.728;8.796;2023-03-12T15:44:48;19.87;;;9.27;;
3068;SDS011;1545;51.728;8.796;2023-03-12T15:47:22;26.60;;;9.40;;
3068;SDS011;1545;51.728;8.796;2023-03-12T15:49:51;23.40;;;10.20;;
3068;SDS011;1545;51.728;8.796;2023-03-12T15:54:59;28.67;;;10.73;;
3068;SDS011;1545;51.728;8.796;2023-03-12T15:57:35;23.90;;;10.40;;
3068;SDS011;1545;51.728;8.796;2023-03-12T16:02:38;25.60;;;10.67;;
3068;SDS011;1545;51.728;8.796;2023-03-12T16:05:15;31.70;;;10.57;;
3068;SDS011;1545;51.728;8.796;2023-03-12T16:07:41;31.07;;;10.20;;
3068;SDS011;1545;51.728;8.796;2023-03-12T16:10:08;23.33;;;9.80;;
3068;SDS011;1545;51.728;8.796;2023-03-12T16:12:38;23.37;;;9.90;;
3068;SDS011;1545;51.728;8.796;2023-03-12T16:15:04;26.50;;;9.77;;
3068;SDS011;1545;51.728;8.796;2023-03-12T16:17:30;25.07;;;10.57;;
3068;SDS011;1545;51.728;8.796;2023-03-12T16:19:55;32.13;;;10.80;;
3068;SDS011;1545;51.728;8.796;2023-03-12T16:22:21;30.37;;;11.40;;
3068;SDS011;1545;51.728;8.796;2023-03-12T16:24:46;29.60;;;10.17;;
3068;SDS011;1545;51.728;8.796;2023-03-12T16:27:15;29.53;;;10.50;;
3068;SDS011;1545;51.728;8.796;2023-03-12T16:29:41;32.33;;;10.27;;
3068;SDS011;1545;51.728;8.796;2023-03-12T16:32:11;33.03;;;9.27;;
3068;SDS011;1545;51.728;8.796;2023-03-12T16:34:37;27.67;;;9.97;;
3068;SDS011;1545;51.728;8.796;2023-03-12T16:37:03;36.13;;;9.47;;
3068;SDS011;1545;51.728;8.796;2023-03-12T16:39:28;28.73;;;9.47;;
3068;SDS011;1545;51.728;8.796;2023-03-12T16:41:57;33.53;;;10.40;;
3068;SDS011;1545;51.728;8.796;2023-03-12T16:44:24;32.60;;;9.07;;
3068;SDS011;1545;51.728;8.796;2023-03-12T16:46:51;31.47;;;9.40;;
3068;SDS011;1545;51.728;8.796;2023-03-12T16:49:17;27.00;;;9.13;;
3068;SDS011;1545;51.728;8.796;2023-03-12T16:51:44;30.00;;;9.47;;
3068;SDS011;1545;51.728;8.796;2023-03-12T16:54:10;27.60;;;8.87;;
3068;SDS011;1545;51.728;8.796;2023-03-12T16:56:36;29.43;;;9.27;;